createdAt,value
2022-08-20T00:00:28.728Z,87.19
2022-08-20T00:02:58.295Z,87.28
2022-08-20T00:05:32.634Z,87.08
2022-08-20T00:08:00.450Z,87.20
2022-08-20T00:10:29.157Z,87.44
2022-08-20T00:12:56.602Z,87.33
2022-08-20T00:15:28.410Z,87.39
2022-08-20T00:17:56.236Z,87.14
2022-08-20T00:20:26.322Z,87.42
2022-08-20T00:22:53.235Z,87.61
2022-08-20T00:25:19.876Z,87.55
2022-08-20T00:27:46.425Z,87.29
2022-08-20T00:30:14.375Z,87.24
2022-08-20T00:32:49.033Z,87.33
2022-08-20T00:35:18.190Z,87.53
2022-08-20T00:37:44.727Z,87.79
2022-08-20T00:40:22.445Z,87.81
2022-08-20T00:42:53.353Z,87.66
2022-08-20T00:45:20.812Z,87.51
2022-08-20T00:47:51.432Z,87.66
2022-08-20T00:50:35.321Z,87.29
2022-08-20T00:53:05.416Z,87.56
2022-08-20T00:55:33.614Z,87.60
2022-08-20T00:58:07.412Z,87.32
2022-08-20T01:00:42.707Z,87.49
2022-08-20T01:03:11.376Z,87.54
2022-08-20T01:05:40.556Z,87.46
2022-08-20T01:08:07.293Z,87.24
2022-08-20T01:10:37.874Z,87.38
2022-08-20T01:13:11.040Z,87.69
2022-08-20T01:15:43.383Z,88.10
2022-08-20T01:18:13.782Z,87.90
2022-08-20T01:20:46.465Z,87.79
2022-08-20T01:23:30.164Z,87.48
2022-08-20T01:26:10.002Z,87.29
2022-08-20T01:28:43.643Z,86.86
2022-08-20T01:31:13.815Z,87.27
2022-08-20T01:33:41.186Z,87.63
2022-08-20T01:36:12.786Z,87.65
2022-08-20T01:38:40.096Z,87.44
2022-08-20T01:41:22.804Z,86.62
2022-08-20T01:43:56.949Z,87.04
2022-08-20T01:46:27.947Z,87.76
2022-08-20T01:48:57.044Z,87.84
2022-08-20T01:51:27.357Z,87.60
2022-08-20T01:53:56.689Z,87.51
2022-08-20T01:56:28.258Z,87.46
2022-08-20T01:58:58.935Z,87.44
2022-08-20T02:01:29.042Z,87.07
2022-08-20T02:03:57.018Z,87.34
2022-08-20T02:06:25.668Z,87.86
2022-08-20T02:08:55.148Z,87.71
2022-08-20T02:11:22.586Z,87.63
2022-08-20T02:13:52.587Z,87.77
2022-08-20T02:16:24.139Z,87.71
2022-08-20T02:18:54.410Z,87.91
2022-08-20T02:21:23.554Z,87.58
2022-08-20T02:23:50.258Z,87.46
2022-08-20T02:26:19.145Z,87.51
2022-08-20T02:28:50.706Z,87.49
2022-08-20T02:31:18.984Z,87.38
2022-08-20T02:34:18.463Z,87.49
2022-08-20T02:36:33.011Z,87.55
2022-08-20T02:38:59.672Z,87.71
2022-08-20T02:41:26.664Z,87.62
2022-08-20T02:43:53.300Z,87.66
2022-08-20T02:46:19.883Z,87.30
2022-08-20T02:48:46.427Z,87.62
2022-08-20T02:51:13.063Z,87.54
2022-08-20T02:53:42.087Z,87.71
2022-08-20T02:56:10.590Z,87.68
2022-08-20T02:58:38.986Z,87.59
2022-08-20T03:01:07.430Z,87.30
2022-08-20T03:03:34.404Z,87.50
2022-08-20T03:06:01.360Z,87.42
2022-08-20T03:08:29.356Z,87.54
2022-08-20T03:10:56.644Z,87.21
2022-08-20T03:13:23.559Z,87.48
2022-08-20T03:15:58.096Z,87.48
2022-08-20T03:18:28.037Z,87.70
2022-08-20T03:20:54.549Z,87.61
2022-08-20T03:23:22.001Z,87.99
2022-08-20T03:25:49.498Z,87.87
2022-08-20T03:28:16.600Z,88.01
2022-08-20T03:30:43.799Z,87.55
2022-08-20T03:33:11.443Z,87.79
2022-08-20T03:35:38.777Z,87.49
2022-08-20T03:38:10.019Z,87.83
2022-08-20T03:40:37.513Z,87.95
2022-08-20T03:43:08.591Z,87.69
2022-08-20T03:45:36.982Z,87.75
2022-08-20T03:48:05.590Z,87.85
2022-08-20T03:50:32.391Z,87.79
2022-08-20T03:53:00.169Z,87.55
2022-08-20T03:55:29.992Z,87.52
2022-08-20T03:58:01.125Z,87.51
2022-08-20T04:00:33.792Z,87.61
2022-08-20T04:03:00.870Z,87.57
2022-08-20T04:05:30.688Z,87.41
2022-08-20T04:08:00.189Z,87.12
2022-08-20T04:10:29.830Z,86.77
2022-08-20T04:12:56.367Z,86.86
2022-08-20T04:15:24.558Z,86.95
2022-08-20T04:17:51.214Z,86.93
2022-08-20T04:20:23.999Z,87.02
2022-08-20T04:22:59.358Z,87.22
2022-08-20T04:25:29.726Z,87.55
2022-08-20T04:27:58.729Z,87.55
2022-08-20T04:30:26.126Z,87.52
2022-08-20T04:32:53.305Z,87.51
2022-08-20T04:35:21.288Z,87.37
2022-08-20T04:37:48.522Z,87.50
2022-08-20T04:40:37.253Z,87.61
2022-08-20T04:43:05.218Z,87.37
2022-08-20T04:45:33.214Z,87.68
2022-08-20T04:48:05.596Z,87.81
2022-08-20T04:50:36.267Z,87.52
2022-08-20T04:53:05.830Z,87.76
2022-08-20T04:55:33.915Z,87.78
2022-08-20T04:58:07.567Z,87.94
2022-08-20T05:00:34.718Z,87.83
2022-08-20T05:03:02.382Z,87.87
2022-08-20T05:05:29.129Z,87.84
2022-08-20T05:07:55.763Z,87.68
2022-08-20T05:10:23.622Z,87.53
2022-08-20T05:12:56.489Z,87.83
2022-08-20T05:15:25.924Z,87.40
2022-08-20T05:17:57.322Z,87.30
2022-08-20T05:20:24.007Z,87.03
2022-08-20T05:22:51.358Z,87.46
2022-08-20T05:25:18.272Z,86.65
2022-08-20T05:27:47.829Z,86.55
2022-08-20T05:30:14.834Z,87.09
2022-08-20T05:32:44.452Z,87.22
2022-08-20T05:35:31.990Z,87.01
2022-08-20T05:38:01.572Z,86.97
2022-08-20T05:40:28.514Z,87.06
2022-08-20T05:43:11.456Z,87.33
2022-08-20T05:46:02.298Z,87.29
2022-08-20T05:48:28.979Z,87.12
2022-08-20T05:50:56.405Z,87.40
2022-08-20T05:53:49.707Z,87.30
2022-08-20T05:56:16.248Z,86.74
2022-08-20T05:58:43.083Z,86.70
2022-08-20T06:01:09.792Z,86.82
2022-08-20T06:03:54.932Z,86.75
2022-08-20T06:06:44.584Z,87.06
2022-08-20T06:09:08.079Z,86.19
2022-08-20T06:11:37.214Z,86.51
2022-08-20T06:14:04.661Z,86.30
2022-08-20T06:16:31.200Z,86.30
2022-08-20T06:18:58.569Z,85.71
2022-08-20T06:21:25.439Z,84.92
2022-08-20T06:23:57.158Z,85.04
2022-08-20T06:26:30.469Z,85.01
2022-08-20T06:28:59.645Z,84.86
2022-08-20T06:31:27.277Z,84.41
2022-08-20T06:33:54.064Z,84.58
2022-08-20T06:36:20.801Z,84.58
2022-08-20T06:38:47.291Z,83.65
2022-08-20T06:41:14.186Z,83.31
2022-08-20T06:43:40.930Z,82.13
2022-08-20T06:46:07.807Z,82.31
2022-08-20T06:48:34.334Z,82.17
2022-08-20T06:51:01.582Z,81.14
2022-08-20T06:53:29.198Z,80.70
2022-08-20T06:55:59.421Z,80.60
2022-08-20T06:58:38.007Z,79.39
2022-08-20T07:01:09.275Z,78.79
2022-08-20T07:03:38.402Z,78.20
2022-08-20T07:06:05.757Z,78.98
2022-08-20T07:08:32.803Z,78.59
2022-08-20T07:10:59.779Z,77.75
2022-08-20T07:13:26.947Z,77.62
2022-08-20T07:15:54.593Z,75.94
2022-08-20T07:18:28.716Z,76.68
2022-08-20T07:20:57.474Z,74.85
2022-08-20T07:23:26.069Z,75.42
2022-08-20T07:25:53.439Z,76.81
2022-08-20T07:28:23.921Z,74.55
2022-08-20T07:31:13.211Z,73.34
2022-08-20T07:33:41.163Z,74.57
2022-08-20T07:36:09.033Z,77.76
2022-08-20T07:38:36.899Z,74.28
2022-08-20T07:41:13.287Z,73.72
2022-08-20T07:43:41.381Z,74.72
2022-08-20T07:46:09.243Z,72.23
2022-08-20T07:48:40.141Z,72.62
2022-08-20T07:51:08.543Z,73.58
2022-08-20T07:53:37.585Z,72.93
2022-08-20T07:56:07.530Z,73.15
2022-08-20T07:58:36.610Z,73.13
2022-08-20T08:01:03.929Z,73.21
2022-08-20T08:03:39.941Z,73.42
2022-08-20T08:06:19.682Z,73.11
2022-08-20T08:09:05.801Z,71.14
2022-08-20T08:11:37.860Z,72.17
2022-08-20T08:14:07.474Z,71.74
2022-08-20T08:16:35.636Z,67.72
2022-08-20T08:19:04.992Z,69.80
2022-08-20T08:21:31.662Z,69.04
2022-08-20T08:23:58.520Z,69.32
2022-08-20T08:26:26.245Z,67.24
2022-08-20T08:28:52.746Z,65.47
2022-08-20T08:31:19.250Z,68.53
2022-08-20T08:33:45.726Z,63.76
2022-08-20T08:36:14.815Z,66.76
2022-08-20T08:38:44.393Z,70.70
2022-08-20T08:41:20.759Z,64.74
2022-08-20T08:43:53.350Z,67.18
2022-08-20T08:46:40.641Z,66.96
2022-08-20T08:49:12.912Z,67.10
2022-08-20T08:51:47.999Z,66.98
2022-08-20T08:54:34.371Z,68.30
2022-08-20T08:57:02.056Z,67.51
2022-08-20T08:59:47.351Z,66.91
2022-08-20T09:02:21.755Z,67.61
2022-08-20T09:04:51.490Z,67.39
2022-08-20T09:07:18.238Z,67.38
2022-08-20T09:09:46.743Z,68.70
2022-08-20T09:12:18.931Z,62.27
2022-08-20T09:14:48.010Z,63.42
2022-08-20T09:17:15.996Z,63.96
2022-08-20T09:19:42.752Z,61.80
2022-08-20T09:22:11.983Z,62.64
2022-08-20T09:24:40.442Z,60.38
2022-08-20T09:27:07.682Z,59.62
2022-08-20T09:29:34.210Z,64.45
2022-08-20T09:32:16.449Z,60.96
2022-08-20T09:34:46.599Z,57.95
2022-08-20T09:37:13.417Z,59.63
2022-08-20T09:39:42.002Z,61.39
2022-08-20T09:42:12.293Z,60.27
2022-08-20T09:44:39.135Z,57.89
2022-08-20T09:47:06.076Z,61.34
2022-08-20T09:49:32.861Z,59.93
2022-08-20T09:52:01.276Z,58.58
2022-08-20T09:54:30.177Z,57.01
2022-08-20T09:56:58.541Z,51.36
2022-08-20T09:59:25.941Z,56.52
2022-08-20T10:01:52.540Z,56.84
2022-08-20T10:04:19.040Z,55.31
2022-08-20T10:06:45.543Z,54.05
2022-08-20T10:09:12.003Z,50.05
2022-08-20T10:11:38.761Z,54.80
2022-08-20T10:14:05.304Z,56.70
2022-08-20T10:16:32.137Z,53.96
2022-08-20T10:18:58.632Z,52.32
2022-08-20T10:21:25.134Z,54.59
2022-08-20T10:23:51.758Z,52.35
2022-08-20T10:26:18.202Z,50.90
2022-08-20T10:28:44.872Z,51.94
2022-08-20T10:31:12.996Z,52.55
2022-08-20T10:33:41.161Z,52.70
2022-08-20T10:36:13.669Z,52.70
2022-08-20T10:38:40.170Z,51.17
2022-08-20T10:41:06.689Z,51.03
2022-08-20T10:43:33.462Z,53.43
2022-08-20T10:46:00.308Z,53.97
2022-08-20T10:48:27.314Z,53.96
2022-08-20T10:50:53.930Z,51.67
2022-08-20T10:53:20.551Z,51.41
2022-08-20T10:55:47.297Z,51.95
2022-08-20T10:58:13.758Z,50.75
2022-08-20T11:00:40.866Z,49.70
2022-08-20T11:03:07.637Z,53.11
2022-08-20T11:05:34.149Z,50.07
2022-08-20T11:08:03.542Z,52.11
2022-08-20T11:10:33.900Z,54.69
2022-08-20T11:13:02.216Z,52.30
2022-08-20T11:15:28.969Z,49.73
2022-08-20T11:17:56.680Z,49.46
2022-08-20T11:20:26.181Z,55.75
2022-08-20T11:22:54.648Z,53.52
2022-08-20T11:25:21.490Z,52.18
2022-08-20T11:27:50.003Z,51.59
2022-08-20T11:30:22.019Z,52.73
2022-08-20T11:32:48.797Z,50.79
2022-08-20T11:35:41.016Z,51.75
2022-08-20T11:38:03.100Z,52.69
2022-08-20T11:40:30.428Z,50.29
2022-08-20T11:45:47.390Z,51.80
2022-08-20T11:48:13.959Z,50.42
2022-08-20T11:50:41.611Z,50.61
2022-08-20T11:53:08.298Z,50.93
2022-08-20T11:55:35.204Z,51.38
2022-08-20T11:58:01.781Z,49.93
2022-08-20T12:00:32.827Z,51.54
2022-08-20T12:03:01.476Z,53.70
2022-08-20T12:05:29.550Z,53.29
2022-08-20T12:07:56.809Z,54.32
2022-08-20T12:10:24.496Z,55.61
2022-08-20T12:12:51.097Z,57.58
2022-08-20T12:15:17.704Z,49.79
2022-08-20T12:17:44.635Z,51.89
2022-08-20T12:20:14.115Z,53.54
2022-08-20T12:22:41.497Z,50.66
2022-08-20T12:25:09.189Z,49.84
2022-08-20T12:27:37.209Z,50.78
2022-08-20T12:30:10.416Z,51.57
2022-08-20T12:32:37.332Z,48.97
2022-08-20T12:35:05.973Z,51.57
2022-08-20T12:37:33.039Z,49.71
2022-08-20T12:40:01.718Z,49.92
2022-08-20T12:42:30.330Z,50.68
2022-08-20T12:44:58.055Z,48.45
2022-08-20T12:47:28.059Z,51.61
2022-08-20T12:50:00.990Z,53.09
2022-08-20T12:52:29.180Z,48.96
2022-08-20T12:54:56.479Z,51.62
2022-08-20T13:00:58.885Z,51.51
2022-08-20T13:06:29.994Z,49.37
2022-08-20T13:08:57.664Z,52.11
2022-08-20T13:11:25.239Z,52.86
2022-08-20T13:13:52.196Z,52.65
2022-08-20T13:19:10.869Z,54.72
2022-08-20T13:24:18.145Z,52.78
2022-08-20T13:26:45.007Z,52.65
2022-08-20T13:29:12.125Z,52.96
2022-08-20T13:31:42.158Z,49.39
2022-08-20T13:34:08.808Z,51.41
2022-08-20T13:36:35.443Z,51.39
2022-08-20T13:39:07.591Z,51.02
2022-08-20T13:41:34.608Z,52.64
2022-08-20T13:44:01.370Z,53.95
2022-08-20T13:46:28.058Z,50.44
2022-08-20T13:48:54.551Z,51.94
2022-08-20T13:51:46.808Z,50.93
2022-08-20T13:54:18.629Z,52.37
2022-08-20T13:56:45.341Z,53.79
2022-08-20T13:59:12.327Z,53.47
2022-08-20T14:01:39.127Z,52.25
2022-08-20T14:04:06.804Z,51.06
2022-08-20T14:06:33.263Z,53.99
2022-08-20T14:09:00.813Z,51.28
2022-08-20T14:11:27.358Z,51.97
2022-08-20T14:13:53.917Z,50.02
2022-08-20T14:16:25.350Z,51.58
2022-08-20T14:18:55.505Z,51.14
2022-08-20T14:21:22.007Z,49.50
2022-08-20T14:23:48.500Z,48.75
2022-08-20T14:26:15.156Z,51.14
2022-08-20T14:28:41.848Z,51.60
2022-08-20T14:31:08.358Z,54.46
2022-08-20T14:33:36.160Z,51.76
2022-08-20T14:36:04.035Z,50.68
2022-08-20T14:38:30.557Z,52.34
2022-08-20T14:40:57.697Z,51.74
2022-08-20T14:43:24.172Z,52.27
2022-08-20T14:45:50.627Z,55.52
2022-08-20T14:48:17.086Z,52.86
2022-08-20T14:50:43.768Z,53.62
2022-08-20T14:53:10.238Z,54.04
2022-08-20T14:55:37.978Z,54.45
2022-08-20T14:58:09.588Z,53.42
2022-08-20T15:00:36.242Z,54.46
2022-08-20T15:03:04.143Z,54.59
2022-08-20T15:05:31.168Z,55.09
2022-08-20T15:07:59.377Z,54.98
2022-08-20T17:17:25.757Z,55.81
2022-08-20T17:19:57.222Z,55.78
2022-08-20T17:22:26.086Z,55.89
2022-08-20T17:24:53.745Z,56.15
2022-08-20T17:27:39.511Z,55.76
2022-08-20T17:30:11.508Z,56.63
2022-08-20T17:32:57.453Z,57.27
2022-08-20T17:35:38.638Z,57.36
2022-08-20T17:38:05.404Z,55.74
2022-08-20T17:40:42.061Z,56.29
2022-08-20T17:43:31.821Z,57.35
2022-08-20T17:46:02.342Z,56.16
2022-08-20T17:48:47.685Z,56.83
2022-08-20T17:51:19.139Z,57.80
2022-08-20T17:53:54.739Z,59.37
2022-08-20T17:56:26.216Z,60.04
2022-08-20T17:59:00.207Z,60.80
2022-08-20T18:01:30.207Z,62.20
2022-08-20T18:03:57.616Z,63.42
2022-08-20T18:06:37.291Z,63.37
2022-08-20T18:09:11.147Z,63.71
2022-08-20T18:11:44.717Z,64.04
2022-08-20T18:14:18.477Z,64.32
2022-08-20T18:16:45.940Z,64.57
2022-08-20T18:19:22.002Z,64.31
2022-08-20T18:21:49.447Z,64.90
2022-08-20T18:24:21.716Z,65.88
2022-08-20T18:26:56.734Z,65.25
2022-08-20T18:29:29.956Z,66.36
2022-08-20T18:31:59.750Z,66.47
2022-08-20T18:34:29.593Z,66.89
2022-08-20T18:36:59.820Z,66.70
2022-08-20T18:39:30.964Z,67.29
2022-08-20T18:42:02.137Z,67.30
2022-08-20T18:44:37.876Z,66.63
2022-08-20T18:47:05.882Z,66.99
2022-08-20T18:49:41.528Z,67.41
2022-08-20T18:52:22.836Z,67.70
2022-08-20T18:54:52.291Z,68.32
2022-08-20T18:57:26.356Z,67.33
2022-08-20T19:00:11.801Z,67.33
2022-08-20T19:02:53.994Z,67.48
2022-08-20T19:05:31.372Z,68.05
2022-08-20T19:08:02.491Z,68.87
2022-08-20T19:10:47.683Z,68.80
2022-08-20T19:13:46.125Z,69.14
2022-08-20T19:16:26.742Z,69.12
2022-08-20T19:18:55.083Z,69.24
2022-08-20T19:21:35.998Z,70.02
2022-08-20T19:24:06.767Z,70.09
2022-08-20T19:26:41.529Z,70.34
2022-08-20T19:29:13.848Z,70.14
2022-08-20T19:31:41.639Z,70.33
2022-08-20T19:34:19.603Z,70.54
2022-08-20T19:37:05.197Z,70.76
2022-08-20T19:39:48.497Z,70.97
2022-08-20T19:42:19.344Z,71.15
2022-08-20T19:44:56.143Z,71.33
2022-08-20T19:47:30.121Z,71.79
2022-08-20T19:50:04.869Z,71.19
2022-08-20T19:53:00.207Z,71.73
2022-08-20T19:55:33.051Z,72.12
2022-08-20T19:58:02.526Z,71.97
2022-08-20T20:00:37.394Z,72.38
2022-08-20T20:03:11.892Z,71.58
2022-08-20T20:05:56.102Z,71.75
2022-08-20T20:08:27.049Z,72.18
2022-08-20T20:10:56.733Z,71.65
2022-08-20T20:13:26.477Z,72.21
2022-08-20T20:15:58.436Z,72.02
2022-08-20T20:18:27.857Z,72.10
2022-08-20T20:21:09.081Z,72.95
2022-08-20T20:23:38.821Z,73.56
2022-08-20T20:26:16.830Z,74.07
2022-08-20T20:28:46.176Z,73.56
2022-08-20T20:31:21.016Z,73.55
2022-08-20T20:33:53.406Z,74.01
2022-08-20T20:36:36.388Z,73.36
2022-08-20T20:39:26.147Z,73.47
2022-08-20T20:41:54.759Z,74.37
2022-08-20T20:44:24.947Z,73.56
2022-08-20T20:46:57.538Z,74.19
2022-08-20T20:49:27.396Z,74.41
2022-08-20T20:52:02.496Z,74.26
2022-08-20T20:54:40.530Z,74.58
2022-08-20T20:57:36.357Z,74.37
2022-08-20T21:00:09.982Z,74.88
2022-08-20T21:02:36.501Z,74.85
2022-08-20T21:05:03.517Z,74.63
2022-08-20T21:07:30.088Z,74.29
2022-08-20T21:09:57.757Z,74.70
2022-08-20T21:12:25.004Z,74.82
2022-08-20T21:14:52.409Z,74.67
2022-08-20T21:17:23.031Z,74.44
2022-08-20T21:19:51.418Z,74.93
2022-08-20T21:22:19.687Z,74.76
2022-08-20T21:24:48.468Z,74.61
2022-08-20T21:27:15.773Z,74.59
2022-08-20T21:29:42.261Z,74.75
2022-08-20T21:32:09.366Z,75.19
2022-08-20T21:34:39.588Z,74.93
2022-08-20T21:37:06.137Z,74.52
2022-08-20T21:39:32.689Z,74.81
2022-08-20T21:42:02.472Z,75.12
2022-08-20T21:44:31.651Z,75.05
2022-08-20T21:46:59.015Z,74.96
2022-08-20T21:49:28.492Z,74.74
2022-08-20T21:51:55.608Z,75.65
2022-08-20T21:54:23.349Z,75.44
2022-08-20T21:56:56.649Z,75.65
2022-08-20T21:59:24.339Z,75.67
2022-08-20T22:01:51.781Z,75.78
2022-08-20T22:04:19.339Z,75.64
2022-08-20T22:06:47.184Z,75.97
2022-08-20T22:09:14.687Z,76.21
2022-08-20T22:11:41.309Z,75.70
2022-08-20T22:14:10.085Z,75.78
2022-08-20T22:16:36.830Z,76.03
2022-08-20T22:19:03.654Z,76.38
2022-08-20T22:21:33.559Z,76.20
2022-08-20T22:24:03.246Z,75.71
2022-08-20T22:26:31.406Z,76.04
2022-08-20T22:28:58.239Z,75.85
2022-08-20T22:31:29.889Z,76.15
2022-08-20T22:33:57.780Z,76.18
2022-08-20T22:36:25.431Z,76.41
2022-08-20T22:38:54.750Z,76.59
2022-08-20T22:41:22.136Z,76.64
2022-08-20T22:43:56.642Z,76.38
2022-08-20T22:46:27.847Z,76.47
2022-08-20T22:48:55.820Z,76.48
2022-08-20T22:51:28.949Z,76.69
2022-08-20T22:53:58.063Z,77.21
2022-08-20T22:56:24.671Z,76.77
2022-08-20T22:58:51.395Z,77.09
2022-08-20T23:01:21.901Z,76.70
2022-08-20T23:03:48.419Z,76.89
2022-08-20T23:06:16.171Z,77.50
2022-08-20T23:08:43.115Z,77.13
2022-08-20T23:11:09.657Z,77.45
2022-08-20T23:13:36.201Z,76.92
2022-08-20T23:16:03.137Z,77.25
2022-08-20T23:18:29.571Z,77.20
2022-08-20T23:20:58.882Z,77.16
2022-08-20T23:23:27.303Z,77.59
2022-08-20T23:25:54.800Z,77.80
2022-08-20T23:28:23.635Z,77.66
2022-08-20T23:30:50.733Z,77.65
2022-08-20T23:33:17.893Z,77.49
2022-08-20T23:35:45.469Z,77.53
2022-08-20T23:38:11.973Z,77.05
2022-08-20T23:40:38.459Z,77.46
2022-08-20T23:43:05.394Z,77.84
2022-08-20T23:45:32.632Z,77.31
2022-08-20T23:47:59.144Z,77.52
2022-08-20T23:50:28.700Z,77.31
2022-08-20T23:52:57.799Z,77.55
2022-08-20T23:55:24.997Z,77.48
2022-08-20T23:57:52.084Z,77.51
